Time;durP1;ratioP1;P1;durP2;ratioP2;P2;SDS_P1;SDS_P2;PMS_P1;PMS_P2;Temp;Humidity;BMP_temperature;BMP_pressure;BME280_temperature;BME280_humidity;BME280_pressure;Samples;Min_cycle;Max_cycle;Signal;HPM_P1;HPM_P2
2022/10/28 00:00:28;;;;;;;37.80;30.23;;;;;;;11.00;94.08;101706.14;1842778;76;25829;-78
2022/10/28 00:03:00;;;;;;;38.98;30.23;;;;;;;10.98;94.05;101699.61;1836712;77;25837;-78
2022/10/28 00:05:28;;;;;;;33.40;26.90;;;;;;;10.97;94.06;101700.59;1834767;76;26565;-77
2022/10/28 00:07:54;;;;;;;32.95;27.32;;;;;;;10.95;94.15;101696.42;1830799;77;26378;-78
2022/10/28 00:10:21;;;;;;;39.40;27.05;;;;;;;10.94;94.39;101692.05;1846759;77;28249;-77
2022/10/28 00:12:47;;;;;;;39.63;28.98;;;;;;;10.95;94.47;101700.44;1845878;77;25899;-77
2022/10/28 00:15:13;;;;;;;62.85;30.60;;;;;;;10.93;94.42;101704.60;1838755;77;25766;-77
2022/10/28 00:17:40;;;;;;;46.10;31.27;;;;;;;10.93;94.18;101701.11;1834575;77;27117;-78
2022/10/28 00:20:07;;;;;;;44.38;32.42;;;;;;;10.91;94.12;101702.59;1831799;77;25638;-78
2022/10/28 00:22:33;;;;;;;59.55;34.90;;;;;;;10.88;93.83;101702.41;1842064;77;27447;-78
2022/10/28 00:25:00;;;;;;;61.73;37.63;;;;;;;10.84;93.68;101695.69;1832825;77;26242;-78
2022/10/28 00:27:26;;;;;;;55.17;35.30;;;;;;;10.81;93.52;101687.99;1834379;75;26453;-77
2022/10/28 00:29:53;;;;;;;50.65;32.95;;;;;;;10.78;93.59;101693.66;1839743;75;26628;-78
2022/10/28 00:32:19;;;;;;;46.28;31.30;;;;;;;10.75;93.59;101693.16;1830831;77;25714;-77
2022/10/28 00:34:46;;;;;;;40.85;30.00;;;;;;;10.73;93.73;101701.34;1817176;78;27410;-78
2022/10/28 00:37:12;;;;;;;32.23;26.73;;;;;;;10.71;93.80;101695.30;1841453;75;25859;-78
2022/10/28 00:39:39;;;;;;;36.30;28.55;;;;;;;10.70;93.85;101689.62;1828123;75;25776;-78
2022/10/28 00:42:06;;;;;;;34.18;28.30;;;;;;;10.69;93.64;101681.22;1809635;77;26523;-77
2022/10/28 00:44:59;;;;;;;39.23;28.75;;;;;;;10.67;93.53;101684.56;1804436;78;25770;-77
2022/10/28 00:47:53;;;;;;;34.10;27.90;;;;;;;10.65;93.20;101690.59;1804951;78;28261;-79
2022/10/28 00:50:40;;;;;;;43.30;26.07;;;;;;;10.61;93.07;101692.41;1812950;78;25719;-78
2022/10/28 00:53:24;;;;;;;32.40;25.55;;;;;;;10.57;93.01;101686.54;1841487;76;25720;-78
2022/10/28 00:55:51;;;;;;;32.93;26.52;;;;;;;10.54;92.93;101686.84;1820531;77;25865;-78
2022/10/28 00:58:22;;;;;;;32.53;25.43;;;;;;;10.49;93.01;101685.66;1839544;75;25916;-78
2022/10/28 01:00:48;;;;;;;30.62;25.10;;;;;;;10.46;92.77;101683.28;1828124;77;28368;-78
2022/10/28 01:03:15;;;;;;;28.32;24.60;;;;;;;10.42;92.79;101678.76;1837155;75;25262;-79
2022/10/28 01:05:45;;;;;;;39.88;27.20;;;;;;;10.41;92.83;101682.45;1837665;75;25775;-78
2022/10/28 01:08:12;;;;;;;47.25;26.07;;;;;;;10.40;92.74;101681.25;1810675;77;26065;-78
2022/10/28 01:10:59;;;;;;;50.65;25.27;;;;;;;10.37;92.53;101685.08;1786623;78;25866;-78
2022/10/28 01:14:17;;;;;;;50.23;26.02;;;;;;;10.34;92.25;101684.08;1802000;78;28346;-78
2022/10/28 01:17:08;;;;;;;39.13;26.60;;;;;;;10.25;91.69;101690.87;1781689;79;26489;-78
2022/10/28 01:22:05;;;;;;;32.70;25.97;;;;;;;10.11;91.57;101672.72;1827894;77;26174;-77
2022/10/28 01:25:09;;;;;;;33.85;26.93;;;;;;;10.01;91.62;101675.45;1801611;78;25873;-77
2022/10/28 01:28:00;;;;;;;32.80;26.25;;;;;;;9.97;91.75;101679.45;1801733;78;28730;-77
2022/10/28 01:30:38;;;;;;;31.90;26.68;;;;;;;9.93;91.95;101674.06;1799951;78;25952;-79
2022/10/28 01:33:13;;;;;;;32.70;26.07;;;;;;;9.89;92.10;101677.56;1792617;78;25784;-78
2022/10/28 01:35:56;;;;;;;33.60;26.27;;;;;;;9.87;92.11;101679.56;1801087;77;25802;-79
2022/10/28 01:39:02;;;;;;;37.88;26.75;;;;;;;9.86;92.44;101677.02;1813875;78;25828;-78
2022/10/28 01:41:39;;;;;;;36.90;28.57;;;;;;;9.85;92.54;101667.32;1805673;78;27533;-78
2022/10/28 01:44:17;;;;;;;45.55;29.72;;;;;;;9.84;92.56;101672.31;1807373;78;25914;-79
2022/10/28 01:46:52;;;;;;;36.00;27.40;;;;;;;9.81;92.50;101666.80;1812114;78;25737;-79
2022/10/28 01:49:23;;;;;;;36.00;27.05;;;;;;;9.82;92.42;101667.63;1806005;78;25710;-79
2022/10/28 01:51:52;;;;;;;;;;;;;;;9.80;92.44;101658.42;1813098;78;25853;-79
2022/10/28 01:54:23;;;;;;;35.28;26.02;;;;;;;9.80;92.37;101658.91;1818843;78;26981;-79
2022/10/28 01:56:52;;;;;;;59.48;25.92;;;;;;;9.75;92.37;101662.05;1812251;78;26381;-79
2022/10/28 01:59:26;;;;;;;35.63;28.20;;;;;;;9.78;92.37;101655.55;1812558;78;25803;-79
2022/10/28 02:01:54;;;;;;;46.00;25.68;;;;;;;9.75;92.35;101660.72;1812405;78;25860;-79
2022/10/28 02:04:21;;;;;;;30.88;25.25;;;;;;;9.75;92.28;101657.22;1816269;78;26420;-79
2022/10/28 02:06:52;;;;;;;31.75;26.37;;;;;;;9.71;92.26;101654.00;1817497;78;27436;-79
2022/10/28 02:09:36;;;;;;;31.02;25.32;;;;;;;9.72;92.41;101658.86;1814098;77;25720;-79
2022/10/28 02:12:26;;;;;;;43.20;28.80;;;;;;;9.69;92.35;101655.14;1797870;78;25822;-78
2022/10/28 02:15:33;;;;;;;41.48;29.20;;;;;;;9.67;92.39;101656.64;1809098;78;25790;-79
2022/10/28 02:18:13;;;;;;;41.60;29.37;;;;;;;9.63;92.50;101643.23;1807641;78;25733;-77
2022/10/28 02:21:06;;;;;;;35.68;27.42;;;;;;;9.63;92.93;101631.69;1822677;77;27435;-77
2022/10/28 02:23:47;;;;;;;35.75;26.82;;;;;;;9.63;93.12;101624.52;1798041;78;25797;-77
2022/10/28 02:26:27;;;;;;;31.48;26.25;;;;;;;9.62;93.22;101632.70;1820661;78;25773;-77
2022/10/28 02:29:15;;;;;;;34.08;25.35;;;;;;;9.62;93.47;101628.69;1806948;78;26027;-77
2022/10/28 02:32:04;;;;;;;34.83;25.05;;;;;;;9.63;93.73;101631.20;1833808;77;25898;-77
2022/10/28 02:34:36;;;;;;;31.40;26.20;;;;;;;9.64;93.89;101630.22;1802119;78;27466;-77
2022/10/28 02:37:07;;;;;;;45.12;25.85;;;;;;;9.66;93.90;101623.37;1816065;78;25874;-77
2022/10/28 02:39:39;;;;;;;42.05;25.97;;;;;;;9.67;93.79;101621.02;1804253;78;25754;-77
2022/10/28 02:42:13;;;;;;;31.20;25.50;;;;;;;9.66;93.54;101622.88;1805498;78;25749;-77
2022/10/28 02:44:44;;;;;;;33.23;26.30;;;;;;;9.65;93.47;101619.00;1800610;78;25744;-77
2022/10/28 02:47:17;;;;;;;31.30;25.12;;;;;;;9.65;93.48;101613.65;1782359;77;28557;-77
2022/10/28 02:49:48;;;;;;;28.35;23.92;;;;;;;9.64;93.52;101616.00;1806102;78;26504;-77
2022/10/28 02:52:16;;;;;;;32.60;24.95;;;;;;;9.64;93.56;101613.33;1817124;78;26468;-77
2022/10/28 02:54:58;;;;;;;29.67;25.57;;;;;;;9.64;93.53;101618.67;1784795;79;25982;-77
2022/10/28 02:57:31;;;;;;;29.92;24.75;;;;;;;9.64;93.61;101613.33;1802699;78;25960;-77
2022/10/28 03:00:03;;;;;;;27.82;24.35;;;;;;;9.64;93.67;101620.02;1821223;78;27540;-77
2022/10/28 03:02:30;;;;;;;29.42;23.10;;;;;;;9.63;93.68;101606.28;1811933;78;26055;-77
2022/10/28 03:04:56;;;;;;;29.05;24.50;;;;;;;9.64;93.68;101606.64;1814384;78;25696;-77
2022/10/28 03:07:23;;;;;;;25.95;23.12;;;;;;;9.63;93.70;101601.78;1819763;78;26552;-78
2022/10/28 03:09:50;;;;;;;27.93;23.02;;;;;;;9.64;93.65;101598.61;1813501;78;25784;-77
2022/10/28 03:12:17;;;;;;;26.20;21.73;;;;;;;9.65;93.71;101601.61;1811509;78;27439;-77
2022/10/28 03:14:43;;;;;;;30.80;24.32;;;;;;;9.65;93.75;101594.92;1801140;78;25801;-77
2022/10/28 03:17:09;;;;;;;28.87;24.63;;;;;;;9.67;93.82;101590.25;1801571;78;25746;-78
2022/10/28 03:19:35;;;;;;;29.75;23.40;;;;;;;9.68;94.02;101587.45;1807347;77;26407;-78
2022/10/28 03:22:02;;;;;;;25.65;22.95;;;;;;;9.70;94.14;101592.14;1817396;78;25943;-77
2022/10/28 03:24:28;;;;;;;26.65;22.75;;;;;;;9.72;94.21;101594.16;1810421;77;27418;-77
2022/10/28 03:26:55;;;;;;;27.73;24.32;;;;;;;9.75;94.17;101591.14;1799543;78;25684;-77
2022/10/28 03:29:21;;;;;;;27.62;23.15;;;;;;;9.76;94.24;101594.18;1808546;78;25807;-77
2022/10/28 03:31:47;;;;;;;26.77;23.45;;;;;;;9.76;94.29;101596.86;1806359;77;25699;-77
2022/10/28 03:34:13;;;;;;;28.67;23.42;;;;;;;9.77;94.30;101601.72;1812627;78;26444;-77
2022/10/28 03:36:40;;;;;;;25.65;21.85;;;;;;;9.77;94.28;101598.52;1829212;77;28372;-77
2022/10/28 03:39:06;;;;;;;26.40;22.85;;;;;;;9.80;94.23;101604.06;1804235;78;25741;-77
2022/10/28 03:41:32;;;;;;;26.50;21.77;;;;;;;9.79;94.26;101604.58;1806779;78;25861;-77
2022/10/28 03:43:59;;;;;;;24.72;22.13;;;;;;;9.81;94.09;101593.71;1804398;78;25864;-77
2022/10/28 03:46:25;;;;;;;25.15;22.02;;;;;;;9.80;93.92;101588.00;1811894;78;25945;-77
2022/10/28 03:48:52;;;;;;;25.45;22.73;;;;;;;9.79;93.79;101586.34;1835201;77;27434;-77
2022/10/28 03:51:18;;;;;;;24.40;21.80;;;;;;;9.78;93.83;101587.33;1818791;78;25730;-77
2022/10/28 03:53:44;;;;;;;28.42;21.82;;;;;;;9.76;93.85;101591.50;1798188;78;26351;-77
2022/10/28 03:56:11;;;;;;;23.65;21.15;;;;;;;9.75;93.84;101596.50;1826428;78;25773;-77
2022/10/28 03:58:37;;;;;;;23.75;21.15;;;;;;;9.75;93.72;101598.36;1816223;78;25827;-77
2022/10/28 04:01:04;;;;;;;24.92;21.12;;;;;;;9.73;93.51;101597.67;1822373;78;28224;-77
2022/10/28 04:03:30;;;;;;;25.40;21.77;;;;;;;9.72;93.53;101599.51;1813407;78;25719;-77
2022/10/28 04:05:56;;;;;;;24.92;21.10;;;;;;;9.71;93.30;101601.02;1810379;78;25809;-77
2022/10/28 04:08:23;;;;;;;26.62;21.17;;;;;;;9.69;93.08;101596.28;1793386;78;25737;-77
2022/10/28 04:10:49;;;;;;;25.95;21.65;;;;;;;9.66;92.92;101596.62;1801867;78;25305;-77
2022/10/28 04:13:17;;;;;;;24.10;21.40;;;;;;;9.65;92.89;101590.91;1795298;79;27412;-77
2022/10/28 04:15:43;;;;;;;25.08;20.82;;;;;;;9.65;92.92;101594.92;1811333;78;26386;-78
2022/10/28 04:18:11;;;;;;;29.72;22.95;;;;;;;9.63;92.91;101594.24;1813197;78;25757;-77
2022/10/28 04:20:38;;;;;;;27.27;21.75;;;;;;;9.63;92.95;101595.58;1806245;78;26335;-77
2022/10/28 04:23:04;;;;;;;23.50;21.00;;;;;;;9.60;92.99;101590.04;1812011;78;25989;-77
2022/10/28 04:25:30;;;;;;;24.80;21.20;;;;;;;9.60;92.93;101580.67;1801433;78;28232;-77
2022/10/28 04:27:57;;;;;;;26.52;21.85;;;;;;;9.59;92.84;101577.67;1815467;78;25814;-78
2022/10/28 04:30:23;;;;;;;28.25;22.05;;;;;;;9.58;92.82;101571.97;1811680;78;25753;-77
2022/10/28 04:32:50;;;;;;;24.95;22.13;;;;;;;9.58;92.83;101567.14;1806306;78;25261;-77
2022/10/28 04:35:16;;;;;;;26.55;22.62;;;;;;;9.57;93.04;101561.44;1801805;78;25798;-77
2022/10/28 04:37:42;;;;;;;28.90;22.70;;;;;;;9.58;93.06;101561.80;1801492;78;28250;-78
2022/10/28 04:40:09;;;;;;;26.00;22.45;;;;;;;9.57;93.14;101556.94;1806170;78;25702;-77
2022/10/28 04:42:35;;;;;;;26.65;23.15;;;;;;;9.59;93.17;101559.44;1808780;77;25802;-78
2022/10/28 04:45:02;;;;;;;26.25;22.42;;;;;;;9.56;92.88;101563.79;1804584;78;26421;-77
2022/10/28 04:47:28;;;;;;;25.90;21.80;;;;;;;9.55;92.90;101551.39;1806307;78;26243;-77
2022/10/28 04:49:54;;;;;;;25.60;21.15;;;;;;;9.54;92.77;101554.56;1808888;78;28216;-77
2022/10/28 04:52:21;;;;;;;29.30;22.70;;;;;;;9.52;92.52;101550.36;1824413;78;25860;-77
2022/10/28 04:54:47;;;;;;;26.25;22.60;;;;;;;9.50;92.36;101552.35;1815966;78;25931;-77
2022/10/28 04:57:13;;;;;;;25.17;22.55;;;;;;;9.49;92.31;101556.04;1809287;78;26462;-77
2022/10/28 04:59:39;;;;;;;27.98;22.07;;;;;;;9.48;92.30;101546.32;1807966;78;25760;-77
2022/10/28 05:02:06;;;;;;;26.50;22.40;;;;;;;9.46;92.15;101537.12;1817001;78;27492;-76
2022/10/28 05:04:32;;;;;;;25.85;22.00;;;;;;;9.44;92.02;101542.28;1818197;77;25985;-77
2022/10/28 05:06:58;;;;;;;28.40;22.15;;;;;;;9.42;92.14;101538.44;1802344;78;25759;-77
2022/10/28 05:09:25;;;;;;;32.98;21.90;;;;;;;9.42;92.28;101542.94;1801977;78;26698;-77
2022/10/28 05:11:51;;;;;;;27.13;21.97;;;;;;;9.44;92.68;101539.61;1815227;78;25886;-77
2022/10/28 05:14:17;;;;;;;36.65;24.47;;;;;;;9.45;93.23;101532.80;1822638;78;27191;-77
2022/10/28 05:16:43;;;;;;;49.23;22.32;;;;;;;9.48;93.80;101535.63;1827897;77;25788;-77
2022/10/28 05:19:10;;;;;;;32.40;22.10;;;;;;;9.46;94.27;101537.12;1810243;78;25678;-77
2022/10/28 05:21:36;;;;;;;26.60;21.97;;;;;;;9.45;94.65;101540.81;1818074;77;26460;-77
2022/10/28 05:24:03;;;;;;;27.80;21.55;;;;;;;9.47;94.65;101536.64;1841300;77;25762;-77
2022/10/28 05:26:29;;;;;;;24.07;21.37;;;;;;;9.47;94.65;101529.95;1844796;77;27421;-78
2022/10/28 05:28:56;;;;;;;26.75;21.65;;;;;;;9.49;94.60;101530.63;1811775;78;25661;-77
2022/10/28 05:31:22;;;;;;;25.40;20.92;;;;;;;9.48;94.56;101524.93;1843808;76;25753;-77
2022/10/28 05:33:48;;;;;;;27.37;21.20;;;;;;;9.47;94.52;101529.95;1810153;78;26092;-77
2022/10/28 05:36:14;;;;;;;23.95;20.20;;;;;;;9.48;94.44;101528.45;1818273;77;25787;-77
2022/10/28 05:38:44;;;;;;;23.30;19.87;;;;;;;9.47;94.22;101522.78;1819898;77;27544;-77
2022/10/28 05:41:09;;;;;;;21.40;19.10;;;;;;;9.47;94.05;101513.41;1817373;76;25699;-77
2022/10/28 05:43:35;;;;;;;22.42;19.23;;;;;;;9.47;93.82;101519.26;1808995;77;25815;-78
2022/10/28 05:46:02;;;;;;;23.95;19.90;;;;;;;9.46;93.84;101514.89;1831647;76;26305;-77
2022/10/28 05:48:29;;;;;;;25.20;20.95;;;;;;;9.45;93.87;101517.23;1778847;78;25866;-77
2022/10/28 05:50:55;;;;;;;21.95;19.52;;;;;;;9.45;93.97;101522.09;1832796;76;27498;-77
2022/10/28 05:53:21;;;;;;;23.57;19.42;;;;;;;9.46;94.16;101522.42;1837097;76;26409;-77
2022/10/28 05:55:48;;;;;;;29.57;20.48;;;;;;;9.46;94.19;101523.75;1827549;77;26465;-77
2022/10/28 05:58:15;;;;;;;26.27;21.25;;;;;;;9.46;94.04;101525.59;1837279;76;26637;-79
2022/10/28 06:00:41;;;;;;;23.57;20.55;;;;;;;9.44;93.70;101530.25;1794549;79;26504;-77
2022/10/28 06:03:11;;;;;;;25.00;20.65;;;;;;;9.43;93.68;101529.93;1793615;79;27458;-77
2022/10/28 06:05:41;;;;;;;29.50;21.77;;;;;;;9.41;93.72;101527.39;1831430;76;25814;-77
2022/10/28 06:08:07;;;;;;;25.90;22.25;;;;;;;9.41;93.65;101531.40;1850963;76;25996;-77
2022/10/28 06:10:34;;;;;;;32.75;24.87;;;;;;;9.40;93.64;101536.91;1802656;78;25716;-77
2022/10/28 06:13:01;;;;;;;35.63;27.70;;;;;;;9.38;93.63;101537.08;1834150;77;25808;-77
2022/10/28 06:15:27;;;;;;;32.33;26.42;;;;;;;9.39;93.71;101533.39;1808239;78;27450;-77
2022/10/28 06:17:54;;;;;;;43.87;30.12;;;;;;;9.39;93.79;101537.41;1812537;77;25752;-77
2022/10/28 06:20:20;;;;;;;55.12;34.95;;;;;;;9.40;93.97;101536.42;1803734;78;26480;-77
2022/10/28 06:22:51;;;;;;;52.43;35.00;;;;;;;9.44;94.03;101535.60;1814964;77;25699;-77
2022/10/28 06:25:20;;;;;;;50.95;34.73;;;;;;;9.45;94.07;101534.63;1812398;77;25919;-77
2022/10/28 06:27:56;;;;;;;46.13;33.13;;;;;;;9.45;94.04;101538.14;1806365;77;27493;-77
2022/10/28 06:30:25;;;;;;;40.58;33.23;;;;;;;9.46;94.09;101538.47;1827023;77;26527;-77
2022/10/28 06:32:52;;;;;;;40.23;31.05;;;;;;;9.46;94.16;101541.14;1812613;78;25812;-77
2022/10/28 06:35:18;;;;;;;40.08;31.33;;;;;;;9.48;94.30;101536.96;1806028;78;25469;-77
2022/10/28 06:37:44;;;;;;;32.45;28.87;;;;;;;9.50;94.49;101543.84;1822824;77;25762;-77
2022/10/28 06:40:11;;;;;;;38.35;27.80;;;;;;;9.54;94.68;101545.20;1820463;77;27447;-77
2022/10/28 06:42:37;;;;;;;35.17;26.25;;;;;;;9.59;94.81;101547.41;1804721;78;26469;-77
2022/10/28 06:45:05;;;;;;;38.20;28.15;;;;;;;9.61;95.02;101546.75;1819300;78;26340;-77
2022/10/28 06:47:32;;;;;;;37.83;27.98;;;;;;;9.64;95.16;101546.45;1814355;77;25741;-77
2022/10/28 06:49:58;;;;;;;37.13;27.22;;;;;;;9.67;95.42;101544.78;1839862;77;25831;-77
2022/10/28 06:52:24;;;;;;;31.90;26.75;;;;;;;9.66;95.59;101538.61;1844943;77;28377;-77
2022/10/28 06:54:50;;;;;;;33.42;27.80;;;;;;;9.68;95.83;101531.27;1841369;76;25731;-77
2022/10/28 06:57:17;;;;;;;44.65;31.93;;;;;;;9.73;96.02;101527.59;1838788;77;25786;-77
2022/10/28 06:59:43;;;;;;;39.80;30.37;;;;;;;9.77;96.45;101520.11;1839003;77;25772;-77
2022/10/28 07:02:11;;;;;;;40.58;30.45;;;;;;;9.82;96.90;101517.28;1849560;77;25316;-77
2022/10/28 07:04:39;;;;;;;50.05;34.78;;;;;;;9.90;97.30;101521.33;1811646;78;26762;-77
2022/10/28 07:07:06;;;;;;;42.13;31.00;;;;;;;9.96;97.53;101523.39;1811714;78;26470;-78
2022/10/28 07:09:32;;;;;;;39.70;29.05;;;;;;;10.01;98.00;101522.39;1810832;78;25805;-77
2022/10/28 07:11:58;;;;;;;35.20;27.02;;;;;;;10.05;98.30;101529.09;1816354;78;25699;-77
2022/10/28 07:14:25;;;;;;;33.60;27.93;;;;;;;10.09;98.54;101531.78;1846522;77;25693;-77
2022/10/28 07:16:51;;;;;;;35.33;26.30;;;;;;;10.14;98.51;101542.58;1819576;78;27423;-77
2022/10/28 07:19:17;;;;;;;33.05;27.32;;;;;;;10.19;98.57;101541.08;1820079;78;25808;-77
2022/10/28 07:21:46;;;;;;;35.40;28.57;;;;;;;10.25;98.78;101543.10;1813532;78;25861;-77
2022/10/28 07:24:13;;;;;;;42.35;31.35;;;;;;;10.32;99.05;101536.11;1768347;80;25460;-77
2022/10/28 07:26:39;;;;;;;42.70;32.55;;;;;;;10.39;99.55;101536.30;1789906;79;25301;-77
2022/10/28 07:29:05;;;;;;;42.33;32.33;;;;;;;10.46;100.00;101539.98;1794814;78;27540;-77
2022/10/28 07:31:31;;;;;;;42.53;34.33;;;;;;;10.54;100.00;101533.33;1798904;78;26468;-77
2022/10/28 07:33:57;;;;;;;39.85;31.37;;;;;;;10.63;100.00;101533.17;1773989;80;25798;-77
2022/10/28 07:36:24;;;;;;;43.05;32.85;;;;;;;10.71;100.00;101524.33;1778749;79;26200;-77
2022/10/28 07:38:51;;;;;;;41.10;31.37;;;;;;;10.78;100.00;101529.34;1794028;78;25868;-77
2022/10/28 07:41:20;;;;;;;46.90;32.38;;;;;;;10.83;100.00;101522.49;1798992;78;28319;-77
2022/10/28 07:43:47;;;;;;;42.50;33.53;;;;;;;10.89;100.00;101522.32;1786535;78;25543;-77
2022/10/28 07:46:14;;;;;;;44.73;34.27;;;;;;;10.94;100.00;101519.99;1783674;78;25803;-77
2022/10/28 07:48:40;;;;;;;46.58;35.35;;;;;;;11.00;100.00;101523.83;1792091;78;25971;-77
2022/10/28 07:51:10;;;;;;;49.20;37.33;;;;;;;11.07;100.00;101523.52;1799851;78;25706;-77
2022/10/28 07:53:37;;;;;;;49.60;37.38;;;;;;;11.16;100.00;101526.00;1803926;78;28212;-77
2022/10/28 07:56:08;;;;;;;51.15;37.90;;;;;;;11.25;100.00;101511.59;1783790;79;25855;-77
2022/10/28 07:58:35;;;;;;;;;;;;;;;11.35;100.00;101515.45;1787395;79;25783;-77
2022/10/28 08:01:05;;;;;;;58.45;39.83;;;;;;;11.43;100.00;101514.94;1780596;79;26251;-77
2022/10/28 08:03:32;;;;;;;54.03;38.00;;;;;;;11.50;100.00;101510.55;1777984;79;25908;-77
2022/10/28 08:06:10;;;;;;;52.93;35.60;;;;;;;11.59;100.00;101511.37;1783066;79;27419;-77
2022/10/28 08:08:38;;;;;;;53.68;38.80;;;;;;;11.65;100.00;101507.50;1782483;79;26023;-77
2022/10/28 08:11:18;;;;;;;53.45;38.00;;;;;;;11.70;100.00;101508.36;1807043;78;26505;-77
2022/10/28 08:13:46;;;;;;;52.43;37.58;;;;;;;11.75;100.00;101501.14;1778797;79;25831;-77
2022/10/28 08:16:12;;;;;;;54.03;38.50;;;;;;;11.78;100.00;101502.99;1783424;79;26444;-77
2022/10/28 08:18:39;;;;;;;48.10;36.13;;;;;;;11.82;100.00;101496.77;1763247;79;28865;-77
2022/10/28 08:21:09;;;;;;;54.53;37.90;;;;;;;11.86;100.00;101502.96;1782273;80;25805;-77
2022/10/28 08:23:37;;;;;;;55.30;38.02;;;;;;;11.92;100.00;101501.42;1808032;77;25727;-76
2022/10/28 08:26:04;;;;;;;50.45;35.45;;;;;;;12.00;100.00;101494.66;1796548;78;26815;-78
2022/10/28 08:28:31;;;;;;;52.93;37.58;;;;;;;12.05;100.00;101490.47;1781810;78;25836;-77
2022/10/28 08:31:02;;;;;;;50.92;36.73;;;;;;;12.13;100.00;101490.92;1794517;79;27455;-77
2022/10/28 08:33:32;;;;;;;53.20;37.48;;;;;;;12.20;100.00;101488.72;1809075;78;25510;-77
2022/10/28 08:35:58;;;;;;;50.98;36.08;;;;;;;12.27;100.00;101486.16;1803467;78;26449;-77
2022/10/28 08:38:24;;;;;;;51.63;36.63;;;;;;;12.35;100.00;101486.95;1800705;78;26242;-77
2022/10/28 08:41:08;;;;;;;51.98;35.85;;;;;;;12.43;100.00;101490.59;1819682;76;25720;-77
2022/10/28 08:43:54;;;;;;;51.45;36.53;;;;;;;12.50;100.00;101489.72;1834234;76;27467;-77
2022/10/28 08:47:07;;;;;;;53.23;35.98;;;;;;;12.57;100.00;101491.19;1831197;77;25784;-77
2022/10/28 08:49:38;;;;;;;47.58;34.18;;;;;;;12.64;100.00;101494.31;1827254;77;25733;-77
2022/10/28 08:52:40;;;;;;;47.85;35.23;;;;;;;12.74;100.00;101495.44;1819961;76;25597;-77
2022/10/28 08:55:34;;;;;;;52.62;36.63;;;;;;;12.82;100.00;101498.06;1834639;76;25688;-77
2022/10/28 08:58:15;;;;;;;42.55;33.80;;;;;;;12.89;100.00;101488.27;1784976;79;27467;-77
2022/10/28 09:00:46;;;;;;;46.40;34.05;;;;;;;12.97;100.00;101489.55;1801827;78;25928;-77
2022/10/28 09:03:23;;;;;;;;;;;;;;;13.05;100.00;101484.97;1810229;78;26455;-78
2022/10/28 09:06:05;;;;;;;42.00;30.17;;;;;;;13.11;100.00;101487.42;1808311;78;25795;-77
2022/10/28 09:08:39;;;;;;;49.75;32.95;;;;;;;13.18;100.00;101483.50;1797150;78;26343;-77
2022/10/28 09:11:37;;;;;;;47.33;33.35;;;;;;;13.23;100.00;101481.95;1807889;78;27879;-77
2022/10/28 09:14:30;;;;;;;40.45;31.40;;;;;;;13.31;100.00;101487.75;1827403;77;25763;-77
2022/10/28 09:17:22;;;;;;;39.00;30.52;;;;;;;13.39;100.00;101487.66;1806318;77;25820;-78
2022/10/28 09:19:52;;;;;;;41.68;29.15;;;;;;;13.45;100.00;101489.12;1802926;78;25795;-77
2022/10/28 09:22:32;;;;;;;42.13;31.35;;;;;;;13.49;100.00;101490.95;1804927;78;25730;-77
2022/10/28 09:25:07;;;;;;;46.20;31.20;;;;;;;13.52;100.00;101490.06;1804686;77;28736;-77
2022/10/28 09:27:48;;;;;;;42.08;30.37;;;;;;;13.56;100.00;101486.48;1797138;77;25687;-78
2022/10/28 09:30:38;;;;;;;42.33;29.77;;;;;;;13.62;100.00;101491.16;1819720;77;25746;-78
2022/10/28 09:33:34;;;;;;;41.80;30.37;;;;;;;13.67;100.00;101480.64;1815550;78;25759;-78
2022/10/28 09:36:04;;;;;;;44.63;29.15;;;;;;;13.76;100.00;101481.73;1806424;78;25720;-77
2022/10/28 09:38:34;;;;;;;41.73;29.50;;;;;;;13.84;100.00;101479.44;1806078;78;27405;-78
2022/10/28 09:41:21;;;;;;;38.95;29.15;;;;;;;13.88;100.00;101482.08;1805246;78;25863;-78
2022/10/28 09:44:13;;;;;;;35.28;28.27;;;;;;;13.95;100.00;101480.31;1809713;78;25779;-78
2022/10/28 09:46:40;;;;;;;40.00;28.02;;;;;;;14.02;100.00;101477.20;1811778;78;26256;-78
2022/10/28 09:49:15;;;;;;;40.45;28.73;;;;;;;14.10;100.00;101474.40;1823917;78;25945;-78
2022/10/28 09:52:08;;;;;;;44.93;31.07;;;;;;;14.17;100.00;101469.09;1807200;78;27461;-78
2022/10/28 09:54:41;;;;;;;41.98;29.12;;;;;;;14.25;100.00;101470.32;1806649;78;26319;-78
2022/10/28 09:57:08;;;;;;;40.73;27.87;;;;;;;14.31;100.00;101463.70;1803368;77;26356;-78
2022/10/28 09:59:35;;;;;;;42.45;28.87;;;;;;;14.37;100.00;101461.58;1807823;78;26569;-78
2022/10/28 10:02:03;;;;;;;43.38;29.45;;;;;;;14.44;100.00;101467.05;1832182;77;26186;-78
2022/10/28 10:04:34;;;;;;;44.23;28.30;;;;;;;14.50;100.00;101471.67;1830760;77;28679;-78
2022/10/28 10:07:11;;;;;;;39.05;27.50;;;;;;;14.54;100.00;101468.41;1833359;77;25725;-78
2022/10/28 10:09:38;;;;;;;38.00;26.97;;;;;;;14.61;100.00;101463.93;1803499;78;26389;-78
2022/10/28 10:12:08;;;;;;;40.12;26.90;;;;;;;14.66;100.00;101462.00;1795711;78;26232;-78
2022/10/28 10:14:51;;;;;;;38.95;26.90;;;;;;;14.72;100.00;101459.04;1780622;78;25947;-77
2022/10/28 10:17:21;;;;;;;34.20;26.82;;;;;;;14.78;100.00;101461.80;1799384;77;26897;-78
2022/10/28 10:20:11;;;;;;;37.23;25.45;;;;;;;14.86;100.00;101440.63;1804908;77;34821;-78
2022/10/28 10:22:43;;;;;;;34.55;25.50;;;;;;;14.93;100.00;101435.59;1805948;78;25789;-78
2022/10/28 10:25:22;;;;;;;36.33;26.35;;;;;;;15.00;100.00;101445.09;1798217;78;26327;-78
2022/10/28 10:28:01;;;;;;;33.55;25.10;;;;;;;15.06;100.00;101449.70;1797699;78;25812;-78
2022/10/28 10:30:39;;;;;;;35.23;25.20;;;;;;;15.11;100.00;101441.86;1776493;78;28959;-79
2022/10/28 10:33:10;;;;;;;39.03;26.27;;;;;;;15.16;100.00;101441.58;1788130;78;26402;-77
2022/10/28 10:35:37;;;;;;;36.53;23.83;;;;;;;15.21;100.00;101436.44;1792850;78;25695;-78
2022/10/28 10:38:05;;;;;;;42.62;25.10;;;;;;;15.26;100.00;101429.95;1790008;78;25792;-78
2022/10/28 10:40:48;;;;;;;33.30;24.77;;;;;;;15.32;100.00;101431.02;1788808;79;25880;-79
2022/10/28 10:43:32;;;;;;;34.50;24.37;;;;;;;15.39;100.00;101423.30;1803730;78;28265;-78
2022/10/28 10:46:16;;;;;;;36.35;23.70;;;;;;;15.44;100.00;101414.60;1774296;78;25696;-78
2022/10/28 10:48:44;;;;;;;33.80;23.25;;;;;;;15.52;100.00;101417.67;1797135;78;25796;-79
2022/10/28 10:51:25;;;;;;;37.48;24.27;;;;;;;15.57;100.00;101411.17;1803807;78;25821;-78
2022/10/28 10:53:59;;;;;;;31.90;23.65;;;;;;;15.63;100.00;101415.77;1785138;78;25701;-84
2022/10/28 10:56:29;;;;;;;30.00;24.27;;;;;;;15.69;100.00;101404.16;1783891;78;27465;-83
2022/10/28 10:59:04;;;;;;;33.55;23.40;;;;;;;15.76;100.00;101408.55;1779985;79;25815;-85
2022/10/28 11:01:35;;;;;;;36.83;26.50;;;;;;;15.83;100.00;101405.88;1773376;79;25267;-85
2022/10/28 11:04:05;;;;;;;37.40;24.10;;;;;;;15.90;100.00;101412.16;1758615;78;26572;-84
2022/10/28 11:06:39;;;;;;;32.00;24.72;;;;;;;15.95;100.00;101415.09;1781952;78;25310;-81
2022/10/28 11:09:29;;;;;;;31.90;23.42;;;;;;;15.99;100.00;101418.55;1769043;78;27717;-81
2022/10/28 11:11:56;;;;;;;37.25;23.73;;;;;;;16.05;100.00;101415.03;1764384;78;25439;-82
2022/10/28 11:14:28;;;;;;;31.10;23.10;;;;;;;16.10;100.00;101411.17;1774969;78;26439;-82
2022/10/28 11:16:57;;;;;;;30.72;22.60;;;;;;;16.16;100.00;101407.69;1810203;77;26243;-84
2022/10/28 11:19:31;;;;;;;31.10;22.07;;;;;;;16.22;100.00;101396.56;1770318;78;25877;-84
2022/10/28 11:22:35;;;;;;;29.60;22.98;;;;;;;16.28;99.74;101403.02;1794711;78;27452;-84
2022/10/28 11:25:19;;;;;;;32.53;22.42;;;;;;;16.35;99.73;101399.81;1801351;78;26335;-85
2022/10/28 11:28:16;;;;;;;27.10;21.97;;;;;;;16.41;99.59;101396.28;1793109;78;25837;-83
2022/10/28 11:31:19;;;;;;;29.42;21.95;;;;;;;16.48;99.57;101400.69;1817689;78;25850;-80
2022/10/28 11:34:10;;;;;;;31.62;21.40;;;;;;;16.56;99.29;101394.26;1800364;79;25703;-79
2022/10/28 11:36:54;;;;;;;30.80;21.42;;;;;;;16.63;98.81;101395.95;1805059;78;27637;-79